LELC/MJV METAR and TAF weather

Enter ICAO airport designator
Station Type Date Time Source
LELC METAR 2023/02/05 13:30 UTC NOAA

LELC 051330Z 06007KT 040V100 9999 BKN018 17/11 Q1031 NOSIG


Station Type Date Time Source
LELC Decoded METAR 2023/02/05 13:30 UTC NOAA

Murcia / San Javier, Spain (LELC) 37-47N 000-48W 3M
Feb 05, 2023 - 08:30 AM EST / 2023.02.05 1330 UTC
Wind: from the ENE (060 degrees) at 8 MPH (7 KT) (direction variable):0
Visibility: greater than 7 mile(s):0
Sky conditions: mostly cloudy
Temperature: 62 F (17 C)
Dew Point: 51 F (11 C)
Relative Humidity: 67%
Pressure (altimeter): 30.45 in. Hg (1031 hPa)
ob: LELC 051330Z 06007KT 040V100 9999 BKN018 17/11 Q1031 NOSIG
cycle: 13

Station Type Date Time Source
LELC TAF 2023/02/05 12:27 UTC NOAA

TAF LELC 051100Z 0512/0612 09010KT 9999 SCT025 TX18/0512Z TN06/0606Z
BECMG 0520/0523 34005KT PROB40
TEMPO 0521/0612 BKN010
BECMG 0609/0611 05010KT

Example: see airport list